Time;durP1;ratioP1;P1;durP2;ratioP2;P2;SDS_P1;SDS_P2;PMS_P1;PMS_P2;Temp;Humidity;BMP_temperature;BMP_pressure;BME280_temperature;BME280_humidity;BME280_pressure;Samples;Min_cycle;Max_cycle;Signal;HPM_P1;HPM_P2
2023/04/07 00:01:20;;;;;;;;;3.33;3.33;;;;;12.01;59.20;101292.69;5025120;28;45554;-73
2023/04/07 00:03:46;;;;;;;;;5.00;2.00;;;;;12.02;58.70;101278.41;5042984;28;45360;-75
2023/04/07 00:06:11;;;;;;;;;2.67;2.00;;;;;11.47;59.05;101203.47;5043427;28;45509;-73
2023/04/07 00:08:37;;;;;;;;;3.67;2.33;;;;;11.96;59.48;101281.59;5043942;28;46089;-73
2023/04/07 00:11:02;;;;;;;;;3.00;1.67;;;;;11.88;59.25;101269.84;5043351;28;45442;-71
2023/04/07 00:13:27;;;;;;;;;3.00;3.00;;;;;11.78;58.92;101253.00;5025448;28;45415;-74
2023/04/07 00:15:53;;;;;;;;;5.67;1.00;;;;;11.63;60.07;101233.06;5043055;28;46043;-73
2023/04/07 00:18:18;;;;;;;;;4.67;2.00;;;;;11.69;60.02;101258.28;5041006;28;48163;-72
2023/04/07 00:20:44;;;;;;;;;3.67;0.00;;;;;11.76;60.24;101286.88;5062953;28;45234;-73
2023/04/07 00:23:09;;;;;;;;;5.00;2.00;;;;;11.45;59.72;101234.72;5063756;28;45347;-73
2023/04/07 00:25:34;;;;;;;;;1.67;1.67;;;;;11.50;59.83;101237.81;5064040;28;46064;-72
2023/04/07 00:28:00;;;;;;;;;3.00;2.00;;;;;11.23;60.35;101194.06;5061690;28;46110;-72
2023/04/07 00:30:25;;;;;;;;;2.00;2.00;;;;;11.75;60.39;101266.56;5059664;28;45377;-73
2023/04/07 00:32:51;;;;;;;;;3.00;2.00;;;;;11.52;59.96;101231.34;5041611;28;45267;-72
2023/04/07 00:35:16;;;;;;;;;2.00;2.00;;;;;11.76;60.31;101276.22;5060044;28;45498;-72
2023/04/07 00:37:42;;;;;;;;;3.00;3.00;;;;;11.72;60.45;101274.84;5059124;28;47873;-71
2023/04/07 00:40:08;;;;;;;;;1.00;1.00;;;;;11.72;60.56;101263.34;5059338;28;45507;-73
2023/04/07 00:42:33;;;;;;;;;4.67;2.67;;;;;11.71;60.35;101264.31;5059429;28;45526;-74
2023/04/07 00:44:59;;;;;;;;;3.00;3.00;;;;;11.06;60.26;101154.78;5057612;28;45421;-72
2023/04/07 00:47:24;;;;;;;;;3.00;3.00;;;;;11.42;60.28;101216.38;5058723;28;46708;-72
2023/04/07 00:49:50;;;;;;;;;3.00;3.00;;;;;11.56;60.01;101223.94;5057727;28;45648;-73
2023/04/07 00:52:15;;;;;;;;;4.00;3.00;;;;;11.66;59.91;101230.13;5058567;28;45569;-71
2023/04/07 00:54:42;;;;;;;;;2.00;2.00;;;;;11.82;59.53;101254.41;5058509;28;45595;-72
2023/04/07 00:57:08;;;;;;;;;2.67;2.00;;;;;11.15;60.10;101139.81;5058659;28;46807;-72
2023/04/07 00:59:33;;;;;;;;;3.67;2.67;;;;;11.75;60.02;101241.75;5059078;28;45369;-72
2023/04/07 01:02:20;;;;;;;;;4.00;3.67;;;;;11.71;59.81;101224.38;5059005;28;45629;-74
2023/04/07 01:05:06;;;;;;;;;2.67;1.00;;;;;11.86;59.74;101255.81;5059370;28;45369;-73
2023/04/07 01:08:09;;;;;;;;;2.67;1.33;;;;;11.85;59.96;101259.47;5058675;28;46562;-72
2023/04/07 01:10:40;;;;;;;;;4.33;2.00;;;;;11.39;60.45;101182.00;5059060;28;45444;-73
2023/04/07 01:13:22;;;;;;;;;5.67;2.00;;;;;11.87;59.81;101262.81;5040913;28;45418;-74
2023/04/07 01:15:51;;;;;;;;;2.33;2.00;;;;;11.74;59.81;101245.38;5058886;28;45479;-71
2023/04/07 01:18:23;;;;;;;;;2.00;2.00;;;;;11.56;60.20;101215.94;5058606;28;46430;-73
2023/04/07 01:20:51;;;;;;;;;1.33;1.33;;;;;11.78;60.29;101246.78;5058289;28;45275;-74
2023/04/07 01:23:26;;;;;;;;;2.67;2.00;;;;;11.57;60.74;101226.44;5059245;28;45484;-73
2023/04/07 01:26:28;;;;;;;;;2.33;1.67;;;;;11.67;60.91;101249.59;5058901;28;45430;-72
2023/04/07 01:29:31;;;;;;;;;2.33;2.00;;;;;11.63;61.29;101248.19;4996449;28;46112;-72
2023/04/07 01:32:01;;;;;;;;;5.00;2.33;;;;;11.55;61.77;101235.56;5058667;28;45292;-73
2023/04/07 01:34:30;;;;;;;;;3.00;2.67;;;;;11.67;60.90;101255.78;5058920;28;45388;-72
2023/04/07 01:36:58;;;;;;;;;5.00;3.00;;;;;11.58;61.17;101252.09;5040429;28;45203;-72
2023/04/07 01:39:26;;;;;;;;;4.33;2.67;;;;;10.74;61.27;101098.28;5058092;28;45434;-72
2023/04/07 01:41:53;;;;;;;;;2.33;2.00;;;;;11.68;60.74;101252.13;5058524;28;45293;-72
2023/04/07 01:44:19;;;;;;;;;6.67;3.67;;;;;11.73;60.89;101259.69;5058041;28;45450;-72
2023/04/07 01:46:45;;;;;;;;;2.33;1.67;;;;;11.67;61.55;101263.75;5058744;28;45205;-74
2023/04/07 01:49:12;;;;;;;;;2.00;2.00;;;;;11.52;61.15;101233.19;5039578;28;47792;-74
2023/04/07 01:51:39;;;;;;;;;4.33;3.00;;;;;11.55;61.98;101246.22;5058268;28;45384;-73
2023/04/07 01:54:04;;;;;;;;;5.33;2.00;;;;;11.69;61.71;101256.47;5059044;28;45356;-72
2023/04/07 01:56:30;;;;;;;;;5.67;3.00;;;;;11.14;61.27;101152.28;5058434;28;45542;-73
2023/04/07 01:58:55;;;;;;;;;4.00;3.00;;;;;11.73;61.26;101259.69;5058806;28;46806;-71
2023/04/07 02:01:21;;;;;;;;;5.00;2.33;;;;;11.78;61.30;101258.31;5039626;28;45413;-73
2023/04/07 02:03:55;;;;;;;;;5.00;3.33;;;;;11.77;61.50;101251.28;5058072;28;45463;-73
2023/04/07 02:06:26;;;;;;;;;2.67;2.00;;;;;10.90;61.50;101106.59;5039963;28;45448;-72
2023/04/07 02:08:56;;;;;;;;;2.33;2.00;;;;;11.80;61.34;101261.69;5057812;28;45635;-72
2023/04/07 02:11:25;;;;;;;;;6.00;3.00;;;;;11.73;61.35;101252.53;5057985;28;45616;-72
2023/04/07 02:13:53;;;;;;;;;5.00;3.00;;;;;11.83;61.19;101266.75;5039829;28;45179;-70
2023/04/07 02:16:19;;;;;;;;;2.00;1.33;;;;;10.87;61.49;101105.03;5056864;28;45416;-73
2023/04/07 02:18:46;;;;;;;;;3.00;3.00;;;;;11.74;60.52;101246.22;5057720;28;45899;-73
2023/04/07 02:21:14;;;;;;;;;5.00;4.00;;;;;9.80;60.57;100919.66;5058113;28;45475;-71
2023/04/07 02:23:39;;;;;;;;;3.33;2.00;;;;;11.75;60.89;101253.25;5039716;28;45385;-72
2023/04/07 02:26:05;;;;;;;;;5.33;2.00;;;;;11.10;60.59;101134.06;5058166;28;45282;-72
2023/04/07 02:28:30;;;;;;;;;6.00;4.67;;;;;11.25;60.69;101159.31;5039542;28;47701;-73
2023/04/07 02:30:56;;;;;;;;;3.33;2.00;;;;;11.72;60.72;101242.03;5057562;28;45376;-72
2023/04/07 02:33:21;;;;;;;;;3.67;2.33;;;;;11.85;60.72;101271.94;5057909;28;45205;-73
2023/04/07 02:35:46;;;;;;;;;4.67;3.33;;;;;11.80;60.58;101250.19;5057863;28;45230;-73
2023/04/07 02:38:12;;;;;;;;;2.67;2.67;;;;;11.77;61.02;101235.28;5057446;28;45596;-71
2023/04/07 02:40:37;;;;;;;;;2.00;2.00;;;;;11.08;60.41;101130.72;5057648;28;45420;-72
2023/04/07 02:43:04;;;;;;;;;3.67;2.33;;;;;11.43;60.79;101178.94;5057916;28;45851;-71
2023/04/07 02:45:29;;;;;;;;;4.33;3.00;;;;;11.99;60.20;101268.84;5057836;28;45411;-72
2023/04/07 02:47:55;;;;;;;;;6.00;4.00;;;;;11.94;61.08;101260.44;5057096;28;45580;-72
2023/04/07 02:50:20;;;;;;;;;4.33;2.33;;;;;11.78;61.06;101242.34;5057387;28;45403;-72
2023/04/07 02:52:46;;;;;;;;;3.67;3.00;;;;;11.90;60.98;101260.88;5054855;28;45398;-73
2023/04/07 02:55:11;;;;;;;;;4.33;4.33;;;;;11.85;60.82;101254.13;5057400;28;45577;-73
2023/04/07 02:57:36;;;;;;;;;5.00;3.33;;;;;11.48;61.40;101195.34;5057146;28;45451;-72
2023/04/07 03:00:03;;;;;;;;;7.33;4.00;;;;;11.82;61.31;101259.75;5038738;28;46068;-72
2023/04/07 03:02:29;;;;;;;;;3.00;3.00;;;;;11.76;61.42;101257.59;5057869;28;45536;-71
2023/04/07 03:04:54;;;;;;;;;3.00;3.00;;;;;11.45;61.54;101210.75;5039271;28;45295;-72
2023/04/07 03:07:20;;;;;;;;;3.67;3.33;;;;;11.44;62.16;101228.56;5038780;28;47282;-73
2023/04/07 03:09:45;;;;;;;;;7.00;6.00;;;;;11.26;61.86;101201.75;5057150;28;45227;-74
2023/04/07 03:12:10;;;;;;;;;6.33;4.33;;;;;11.58;62.37;101259.25;5038894;28;45276;-73
2023/04/07 03:14:36;;;;;;;;;5.00;4.00;;;;;10.87;62.69;101138.78;5057275;28;45488;-72
2023/04/07 03:17:03;;;;;;;;;3.00;3.00;;;;;11.51;62.94;101252.78;5039328;28;48286;-71
2023/04/07 03:19:28;;;;;;;;;5.33;4.33;;;;;11.14;63.18;101200.19;5057713;28;45223;-73
2023/04/07 03:21:53;;;;;;;;;6.67;3.00;;;;;11.43;63.01;101253.50;5039715;28;45547;-74
2023/04/07 03:24:19;;;;;;;;;7.00;5.00;;;;;11.19;63.26;101218.38;5040084;28;45184;-73
2023/04/07 03:26:44;;;;;;;;;4.67;2.33;;;;;11.33;63.66;101260.59;5038957;28;47749;-71
2023/04/07 03:29:10;;;;;;;;;4.00;4.00;;;;;11.29;63.74;101251.22;5038943;28;45631;-72
2023/04/07 03:31:36;;;;;;;;;7.00;4.00;;;;;11.09;63.50;101230.84;5039531;28;45523;-73
2023/04/07 03:34:03;;;;;;;;;6.33;3.67;;;;;11.21;64.08;101251.91;5057598;28;45342;-73
2023/04/07 03:36:28;;;;;;;;;4.00;4.00;;;;;10.33;63.63;101111.59;5056939;28;45815;-71
2023/04/07 03:38:54;;;;;;;;;5.00;4.00;;;;;11.22;63.93;101261.56;5057167;28;45400;-74
2023/04/07 03:41:19;;;;;;;;;3.33;3.00;;;;;11.18;63.98;101270.78;5056648;28;45257;-73
2023/04/07 03:43:45;;;;;;;;;5.00;3.33;;;;;9.75;64.10;101028.94;5039146;28;45456;-74
2023/04/07 03:46:11;;;;;;;;;5.67;3.33;;;;;10.30;64.93;101140.25;5056950;28;46306;-72
2023/04/07 03:48:36;;;;;;;;;3.00;3.00;;;;;11.04;64.50;101268.50;5057033;28;45266;-72
2023/04/07 03:51:02;;;;;;;;;7.00;4.67;;;;;10.32;65.03;101171.03;5039636;28;45314;-73
2023/04/07 03:53:27;;;;;;;;;6.33;5.33;;;;;10.76;65.34;101245.25;5056591;28;45210;-73
2023/04/07 03:55:52;;;;;;;;;6.00;3.00;;;;;10.87;65.35;101277.94;5056722;28;46004;-72
2023/04/07 03:58:18;;;;;;;;;3.67;3.67;;;;;10.59;65.43;101218.31;5038240;28;45219;-74
2023/04/07 04:00:43;;;;;;;;;5.67;5.00;;;;;10.80;65.55;101271.44;5057698;28;45243;-73
2023/04/07 04:03:09;;;;;;;;;5.00;4.00;;;;;10.37;65.86;101205.19;5058500;28;45309;-71
2023/04/07 04:05:35;;;;;;;;;4.33;3.33;;;;;10.35;66.11;101205.31;5042554;28;46427;-73
2023/04/07 04:08:00;;;;;;;;;5.33;2.67;;;;;10.71;65.62;101261.63;5060548;28;45361;-72
2023/04/07 04:10:26;;;;;;;;;6.00;3.67;;;;;10.74;65.55;101249.88;5060766;28;45347;-73
2023/04/07 04:12:51;;;;;;;;;4.33;2.67;;;;;10.84;65.02;101262.25;5042032;28;45472;-73
2023/04/07 04:15:17;;;;;;;;;3.67;3.67;;;;;10.11;65.11;101151.59;5041776;28;48086;-73
2023/04/07 04:17:42;;;;;;;;;4.33;4.33;;;;;10.01;64.90;101143.56;5059953;28;45567;-73
2023/04/07 04:20:08;;;;;;;;;4.67;4.67;;;;;10.61;65.50;101253.63;5041713;28;45369;-71
2023/04/07 04:22:34;;;;;;;;;6.67;3.67;;;;;10.73;65.68;101285.44;5059887;28;45289;-71
2023/04/07 04:25:00;;;;;;;;;5.00;3.00;;;;;10.47;65.30;101235.34;5059888;28;45727;-73
2023/04/07 04:27:26;;;;;;;;;6.00;4.00;;;;;10.72;65.85;101284.59;5059958;28;45195;-72
2023/04/07 04:29:52;;;;;;;;;4.67;4.67;;;;;10.66;66.05;101291.28;5059540;28;45250;-71
2023/04/07 04:32:18;;;;;;;;;6.00;5.00;;;;;10.67;65.84;101297.44;5059881;28;45494;-73
2023/04/07 04:34:43;;;;;;;;;5.00;3.00;;;;;10.35;65.90;101241.69;5059250;28;46114;-70
2023/04/07 04:37:09;;;;;;;;;5.00;4.00;;;;;10.55;65.47;101272.72;5059583;28;45498;-73
2023/04/07 04:39:35;;;;;;;;;10.00;8.67;;;;;9.76;65.72;101147.44;5059834;28;45353;-74
2023/04/07 04:42:00;;;;;;;;;7.67;5.00;;;;;10.62;65.72;101297.84;5041301;28;45465;-72
2023/04/07 04:44:26;;;;;;;;;6.33;3.33;;;;;10.49;65.87;101278.56;5059729;28;46710;-74
2023/04/07 04:46:52;;;;;;;;;4.33;4.33;;;;;10.29;66.21;101253.69;5040930;28;45558;-72
2023/04/07 04:49:17;;;;;;;;;7.00;5.00;;;;;10.20;66.27;101253.56;5059379;28;45401;-73
2023/04/07 04:51:43;;;;;;;;;6.67;4.00;;;;;10.29;66.43;101277.59;5059241;28;45324;-73
2023/04/07 04:54:09;;;;;;;;;4.00;4.00;;;;;10.20;66.36;101266.84;5040550;28;48372;-73
2023/04/07 04:56:35;;;;;;;;;4.67;3.00;;;;;10.43;66.54;101289.75;5041366;28;45298;-74
2023/04/07 04:59:01;;;;;;;;;9.33;6.67;;;;;10.29;66.36;101282.06;5040703;28;45366;-73
2023/04/07 05:01:27;;;;;;;;;5.67;5.00;;;;;10.43;66.61;101300.38;5059400;28;45487;-74
2023/04/07 05:03:52;;;;;;;;;5.33;5.00;;;;;10.45;66.15;101298.41;5040524;28;47397;-72
2023/04/07 05:06:18;;;;;;;;;7.00;5.00;;;;;10.40;66.74;101289.97;5059032;28;45295;-72
2023/04/07 05:08:43;;;;;;;;;6.33;4.00;;;;;10.49;66.07;101305.16;5040968;28;45478;-73
2023/04/07 05:11:08;;;;;;;;;5.00;5.00;;;;;10.50;65.99;101308.66;5059299;28;45228;-73
2023/04/07 05:13:34;;;;;;;;;9.00;6.33;;;;;10.31;65.94;101275.66;5058784;28;45571;-73
2023/04/07 05:16:00;;;;;;;;;5.33;5.33;;;;;10.49;65.98;101307.81;5057674;28;45951;-73
2023/04/07 05:18:25;;;;;;;;;4.67;4.67;;;;;10.32;65.85;101273.84;5059154;28;45282;-73
2023/04/07 05:20:51;;;;;;;;;8.00;6.67;;;;;10.54;65.87;101305.59;5058395;28;45397;-74
2023/04/07 05:23:16;;;;;;;;;9.00;7.33;;;;;10.32;65.94;101255.22;5039839;28;47782;-73
2023/04/07 05:25:42;;;;;;;;;10.00;6.33;;;;;10.47;65.23;101293.81;5058096;28;45348;-74
2023/04/07 05:28:07;;;;;;;;;7.33;6.67;;;;;10.57;65.59;101296.53;5058549;28;45439;-73
2023/04/07 05:30:33;;;;;;;;;6.67;5.67;;;;;10.57;65.55;101302.69;5058667;28;45348;-73
2023/04/07 05:32:58;;;;;;;;;6.67;6.00;;;;;10.47;66.08;101283.19;5057149;28;46238;-73
2023/04/07 05:35:23;;;;;;;;;8.00;6.00;;;;;10.59;65.81;101306.03;5057730;28;45509;-72
2023/04/07 05:37:49;;;;;;;;;8.67;7.67;;;;;10.44;65.71;101269.31;5057917;28;56285;-72
2023/04/07 05:40:14;;;;;;;;;8.33;6.67;;;;;10.21;65.85;101245.53;5053247;28;45443;-75
2023/04/07 05:42:40;;;;;;;;;10.00;6.67;;;;;9.61;65.99;101155.84;5056829;28;46190;-72
2023/04/07 05:45:06;;;;;;;;;9.67;6.00;;;;;9.62;65.51;101149.59;5058278;28;45357;-73
2023/04/07 05:47:31;;;;;;;;;7.00;5.67;;;;;10.46;65.40;101286.81;5040355;28;45367;-73
2023/04/07 05:49:57;;;;;;;;;8.33;7.33;;;;;10.61;65.75;101330.72;5040760;28;45507;-74
2023/04/07 05:52:22;;;;;;;;;11.67;7.33;;;;;10.25;65.66;101246.09;5038972;28;48352;-78
2023/04/07 05:54:48;;;;;;;;;11.00;10.00;;;;;9.90;65.37;101193.25;5058176;28;45307;-74
2023/04/07 05:57:13;;;;;;;;;10.00;10.00;;;;;10.71;65.58;101309.50;5057780;28;45416;-72
2023/04/07 05:59:39;;;;;;;;;12.00;7.00;;;;;10.74;65.07;101308.38;5040611;28;45502;-72
2023/04/07 06:02:05;;;;;;;;;7.00;7.00;;;;;10.53;64.98;101290.63;5057999;28;46291;-73
2023/04/07 06:04:31;;;;;;;;;15.00;10.67;;;;;10.82;65.13;101317.41;5057628;28;45404;-72
2023/04/07 06:06:57;;;;;;;;;10.67;9.33;;;;;10.89;64.87;101333.69;5039886;28;45397;-74
2023/04/07 06:09:22;;;;;;;;;8.33;8.33;;;;;10.85;64.43;101305.66;5040055;28;45338;-71
2023/04/07 06:11:48;;;;;;;;;9.67;8.33;;;;;10.62;64.53;101257.94;5039275;28;48084;-75
2023/04/07 06:14:13;;;;;;;;;15.00;9.33;;;;;10.23;64.23;101193.09;5056926;28;45457;-73
2023/04/07 06:16:39;;;;;;;;;11.00;8.00;;;;;10.45;64.07;101239.94;5057658;28;45341;-75
2023/04/07 06:19:06;;;;;;;;;10.00;8.00;;;;;10.24;63.64;101189.47;5057766;28;45634;-74
2023/04/07 06:21:31;;;;;;;;;10.33;10.33;;;;;11.22;63.58;101329.94;5038140;28;45909;-77
2023/04/07 06:23:57;;;;;;;;;11.00;9.00;;;;;11.30;63.09;101321.25;5057977;28;45299;-77
2023/04/07 06:26:23;;;;;;;;;13.67;10.67;;;;;11.85;62.51;101349.22;5040529;28;45298;-75
2023/04/07 06:28:48;;;;;;;;;31.00;29.67;;;;;12.15;60.74;101298.44;5056982;28;45294;-74
2023/04/07 06:31:14;;;;;;;;;11.33;10.33;;;;;13.00;59.22;101342.94;5036780;28;47259;-73
2023/04/07 06:33:39;;;;;;;;;10.33;8.33;;;;;13.38;57.69;101325.13;5037675;28;45826;-75
2023/04/07 06:36:05;;;;;;;;;12.00;10.00;;;;;11.53;56.41;100955.28;5058783;28;45451;-75
2023/04/07 06:38:31;;;;;;;;;9.00;9.00;;;;;13.38;55.13;101212.97;5057757;28;45412;-73
2023/04/07 06:40:56;;;;;;;;;15.00;10.67;;;;;14.56;54.16;101341.06;5056890;28;46501;-73
2023/04/07 06:43:21;;;;;;;;;9.33;8.67;;;;;14.56;52.91;101298.25;5034272;28;46147;-77
2023/04/07 06:45:47;;;;;;;;;10.67;10.67;;;;;15.08;52.03;101315.16;5070895;28;45546;-74
2023/04/07 06:48:12;;;;;;;;;15.00;13.33;;;;;15.25;50.65;101280.44;5057597;28;45446;-76
2023/04/07 06:50:37;;;;;;;;;16.00;10.67;;;;;15.97;49.51;101330.75;5057890;28;46457;-75
2023/04/07 06:53:04;;;;;;;;;8.67;7.33;;;;;16.52;48.94;101359.66;5039787;28;46203;-75
2023/04/07 06:55:30;;;;;;;;;10.33;9.67;;;;;16.93;47.50;101362.34;5056300;28;45319;-76
2023/04/07 06:57:55;;;;;;;;;6.00;4.67;;;;;17.15;46.52;101318.63;5058593;28;45573;-75
2023/04/07 07:00:21;;;;;;;;;14.67;11.67;;;;;17.45;45.38;101297.34;5055754;28;59977;-76
2023/04/07 07:02:48;;;;;;;;;12.33;10.33;;;;;18.43;43.84;101370.25;5038289;28;46827;-76
2023/04/07 07:05:14;;;;;;;;;13.33;12.33;;;;;18.79;42.74;101370.47;5057328;28;45218;-76
2023/04/07 07:07:39;;;;;;;;;12.00;11.67;;;;;18.89;41.75;101330.66;5057402;28;45360;-74
2023/04/07 07:10:07;;;;;;;;;17.00;15.67;;;;;19.23;41.20;101318.50;5077048;28;46174;-76
2023/04/07 07:12:32;;;;;;;;;39.33;34.33;;;;;19.93;40.35;101372.72;5076948;28;45806;-76
2023/04/07 07:14:58;;;;;;;;;11.33;11.33;;;;;19.94;38.94;101347.41;5075928;28;45339;-77
2023/04/07 07:17:23;;;;;;;;;9.67;7.33;;;;;20.40;38.31;101371.34;5077518;28;45485;-76
2023/04/07 07:19:49;;;;;;;;;11.67;9.67;;;;;20.40;37.26;101332.69;5058106;28;45967;-74
2023/04/07 07:22:14;;;;;;;;;22.00;20.00;;;;;21.02;37.79;101356.28;5038929;28;45485;-74
2023/04/07 07:24:40;;;;;;;;;17.00;17.00;;;;;21.60;36.62;101356.88;5029013;28;45448;-74
2023/04/07 07:27:05;;;;;;;;;11.67;10.67;;;;;22.08;35.18;101365.84;5025477;28;46021;-75
2023/04/07 07:29:30;;;;;;;;;14.67;10.33;;;;;21.36;34.92;101221.09;5036668;28;47043;-74
2023/04/07 07:31:56;;;;;;;;;11.67;11.67;;;;;22.45;33.82;101334.63;5054302;28;45494;-74
2023/04/07 07:34:21;;;;;;;;;15.67;13.33;;;;;23.13;32.96;101385.94;5055525;28;45585;-73
2023/04/07 07:36:47;;;;;;;;;19.00;14.67;;;;;23.37;33.04;101364.38;5056852;28;45293;-75
2023/04/07 07:39:13;;;;;;;;;12.00;10.00;;;;;23.61;32.87;101352.00;5055182;28;46814;-75
2023/04/07 07:41:38;;;;;;;;;10.33;10.33;;;;;24.01;31.53;101350.97;5059895;28;45359;-73
2023/04/07 07:44:04;;;;;;;;;17.00;13.50;;;;;24.43;31.45;101380.22;5072505;28;45486;-74
2023/04/07 07:46:29;;;;;;;;;16.33;16.33;;;;;24.27;30.61;101329.09;5072250;28;45463;-73
2023/04/07 07:48:55;;;;;;;;;15.67;13.67;;;;;24.76;30.98;101393.53;5058538;28;46451;-73
2023/04/07 07:51:20;;;;;;;;;15.00;13.67;;;;;24.80;30.33;101355.84;5059885;28;45364;-74
2023/04/07 07:53:46;;;;;;;;;18.00;15.33;;;;;24.77;29.66;101289.16;5059710;28;45603;-73
2023/04/07 07:56:12;;;;;;;;;14.00;12.00;;;;;25.72;28.63;101389.50;5055757;28;45460;-74
2023/04/07 07:58:37;;;;;;;;;14.67;12.33;;;;;25.97;28.20;101383.94;5061683;28;46665;-73
2023/04/07 08:01:03;;;;;;;;;11.67;11.67;;;;;25.99;28.02;101354.56;5059243;28;45411;-74
2023/04/07 08:03:28;;;;;;;;;13.00;13.00;;;;;26.42;27.27;101386.25;5059728;28;45356;-74
2023/04/07 08:05:53;;;;;;;;;10.00;10.00;;;;;26.21;27.04;101312.09;5056971;28;45477;-76
2023/04/07 08:08:19;;;;;;;;;9.00;8.00;;;;;26.79;26.89;101365.06;5057457;28;45744;-77
2023/04/07 08:10:48;;;;;;;;;13.67;12.67;;;;;26.98;26.62;101397.47;5041170;28;45409;-74
2023/04/07 08:13:13;;;;;;;;;11.00;11.00;;;;;26.59;26.05;101332.69;5049830;28;45958;-76
2023/04/07 08:15:39;;;;;;;;;11.00;11.00;;;;;26.40;25.87;101323.75;5051760;28;45226;-74
2023/04/07 08:18:05;;;;;;;;;13.33;11.67;;;;;26.34;25.82;101333.72;5075760;28;46511;-73
2023/04/07 08:20:31;;;;;;;;;9.33;8.33;;;;;26.29;26.25;101298.13;5064049;28;45384;-73
2023/04/07 08:22:57;;;;;;;;;15.67;14.67;;;;;27.04;26.02;101406.66;5059340;28;45445;-74
2023/04/07 08:25:23;;;;;;;;;12.33;12.00;;;;;26.97;26.16;101390.38;5041286;28;45515;-74
2023/04/07 08:27:48;;;;;;;;;12.33;12.33;;;;;27.09;25.90;101400.50;5059068;28;46193;-75
2023/04/07 08:30:14;;;;;;;;;12.33;10.67;;;;;25.42;26.27;101158.00;5069579;28;45371;-74
2023/04/07 08:32:41;;;;;;;;;12.67;12.33;;;;;26.94;26.20;101396.28;5053581;28;45511;-74
2023/04/07 08:35:07;;;;;;;;;16.67;15.00;;;;;26.54;26.26;101319.75;5044558;28;45647;-75
2023/04/07 08:37:33;;;;;;;;;17.33;14.33;;;;;27.15;25.90;101402.25;5059246;28;47824;-75
2023/04/07 08:39:59;;;;;;;;;14.00;11.67;;;;;27.27;25.85;101405.84;5041294;28;45430;-74
2023/04/07 08:42:28;;;;;;;;;16.00;14.00;;;;;27.36;25.85;101409.84;5058969;28;45199;-73
2023/04/07 08:45:05;;;;;;;;;13.00;12.67;;;;;27.48;25.82;101397.03;5058068;28;45304;-74
2023/04/07 08:47:32;;;;;;;;;16.33;16.33;;;;;27.55;26.13;101389.50;5058216;28;46218;-74
2023/04/07 08:50:06;;;;;;;;;15.67;14.67;;;;;27.74;24.72;101384.75;5056988;28;45183;-75
2023/04/07 08:52:47;;;;;;;;;17.00;11.33;;;;;27.95;24.85;101391.44;5058625;28;45473;-74
2023/04/07 08:55:13;;;;;;;;;15.67;13.33;;;;;28.10;24.89;101405.41;5057108;28;45732;-74
2023/04/07 08:57:40;;;;;;;;;14.67;12.33;;;;;27.48;24.41;101295.97;5046785;28;47374;-75
2023/04/07 09:00:06;;;;;;;;;15.67;15.67;;;;;28.02;24.49;101392.13;5062160;28;45591;-74
2023/04/07 09:02:33;;;;;;;;;15.00;12.00;;;;;28.23;23.79;101404.28;5040201;28;45287;-73
2023/04/07 09:04:58;;;;;;;;;14.33;11.33;;;;;27.54;24.30;101319.56;5043391;28;45593;-75
2023/04/07 09:07:24;;;;;;;;;15.67;11.00;;;;;27.86;23.98;101355.50;5057986;28;46022;-75
2023/04/07 09:09:49;;;;;;;;;11.33;9.67;;;;;28.40;23.84;101404.34;5057960;28;45317;-74
2023/04/07 09:12:15;;;;;;;;;15.00;13.33;;;;;28.38;23.90;101362.72;5060497;28;45551;-76
2023/04/07 09:14:40;;;;;;;;;11.00;10.00;;;;;28.83;23.51;101397.41;5058028;28;45573;-74
2023/04/07 09:17:06;;;;;;;;;10.67;9.67;;;;;28.72;22.22;101330.75;5062424;28;45941;-75
2023/04/07 09:19:32;;;;;;;;;10.67;10.00;;;;;28.58;22.74;101340.38;5077356;28;45512;-75
2023/04/07 09:21:57;;;;;;;;;18.67;15.00;;;;;29.36;21.99;101419.59;5058766;28;45513;-74
2023/04/07 09:24:28;;;;;;;;;15.67;14.33;;;;;29.70;22.07;101414.06;5066044;28;45448;-75
2023/04/07 09:27:10;;;;;;;;;9.33;9.33;;;;;30.19;21.43;101335.38;5062690;28;47255;-75
2023/04/07 09:29:36;;;;;;;;;12.67;12.33;;;;;30.00;20.09;101221.66;5074967;28;45381;-76
2023/04/07 09:32:02;;;;;;;;;13.00;11.33;;;;;31.76;20.32;101420.00;5065458;28;45359;-74
2023/04/07 09:34:32;;;;;;;;;13.00;10.00;;;;;32.13;19.20;101359.34;5067523;28;45639;-74
2023/04/07 09:36:58;;;;;;;;;12.00;12.00;;;;;31.86;18.25;101262.50;5055562;28;47637;-76
2023/04/07 09:39:24;;;;;;;;;13.33;13.33;;;;;32.57;17.98;101424.91;5065094;28;45531;-75
2023/04/07 09:41:53;;;;;;;;;14.67;12.00;;;;;31.94;18.67;101378.28;5077941;28;45580;-73
2023/04/07 09:44:22;;;;;;;;;10.00;9.67;;;;;30.65;19.94;101351.47;5078138;28;45325;-75
2023/04/07 09:47:00;;;;;;;;;9.33;9.00;;;;;30.38;20.35;101387.97;5059637;28;47181;-75
2023/04/07 09:49:26;;;;;;;;;10.33;9.33;;;;;30.67;19.97;101421.47;5063504;28;45347;-75
2023/04/07 09:52:07;;;;;;;;;12.67;10.00;;;;;30.16;20.05;101422.84;5042411;28;46489;-74
2023/04/07 09:54:34;;;;;;;;;10.00;10.00;;;;;30.41;20.13;101416.78;5069695;28;45380;-74
2023/04/07 09:57:02;;;;;;;;;12.33;11.00;;;;;29.86;19.57;101218.53;5057998;28;46936;-75
2023/04/07 09:59:29;;;;;;;;;11.67;10.00;;;;;30.43;19.57;101401.72;5057840;28;45516;-74
2023/04/07 10:01:55;;;;;;;;;15.00;12.00;;;;;28.49;20.22;101298.94;5042306;28;45325;-75
2023/04/07 10:04:21;;;;;;;;;10.00;9.33;;;;;27.23;21.79;101377.31;5075135;28;45451;-75
2023/04/07 10:06:47;;;;;;;;;89.00;81.00;;;;;26.01;23.67;101360.59;5055602;28;46852;-77
2023/04/07 10:09:13;;;;;;;;;30.33;27.33;;;;;25.04;24.08;101291.66;5054595;28;45441;-77
2023/04/07 10:11:42;;;;;;;;;18.33;18.33;;;;;25.36;24.29;101330.41;5048346;28;45578;-77
2023/04/07 10:14:10;;;;;;;;;15.67;15.33;;;;;25.80;24.14;101426.47;5027779;28;45489;-77
2023/04/07 10:16:41;;;;;;;;;12.67;11.67;;;;;25.33;24.82;101416.06;5078375;28;47217;-77
2023/04/07 10:19:08;;;;;;;;;13.00;11.00;;;;;24.91;25.40;101420.41;5048965;28;45735;-78
2023/04/07 10:21:41;;;;;;;;;10.00;10.00;;;;;24.27;26.35;101411.44;5037405;28;45447;-76
2023/04/07 10:24:09;;;;;;;;;9.67;9.33;;;;;23.67;26.69;101421.75;5020615;28;45734;-78
2023/04/07 10:26:37;;;;;;;;;15.33;10.67;;;;;23.17;27.84;101428.69;5020276;28;46234;-77
2023/04/07 10:29:07;;;;;;;;;15.33;13.67;;;;;22.22;27.90;101375.63;5036677;28;45427;-77
2023/04/07 10:31:35;;;;;;;;;17.00;15.33;;;;;22.00;28.73;101431.78;5038149;28;45369;-78
2023/04/07 10:34:01;;;;;;;;;6.00;4.33;;;;;21.15;28.73;101395.09;5022513;28;45940;-77
2023/04/07 10:36:28;;;;;;;;;7.33;7.33;;;;;20.11;30.02;101374.19;5039626;28;48081;-77
2023/04/07 10:39:05;;;;;;;;;9.33;8.33;;;;;20.11;30.42;101429.00;5057630;28;45296;-78
2023/04/07 10:41:40;;;;;;;;;13.33;9.67;;;;;19.99;30.76;101390.03;5055820;28;45440;-77
2023/04/07 10:44:09;;;;;;;;;6.00;6.00;;;;;20.36;30.22;101419.50;5058177;28;45503;-76
2023/04/07 10:46:44;;;;;;;;;10.00;10.00;;;;;20.23;30.27;101437.47;5077456;28;46109;-78
2023/04/07 10:49:10;;;;;;;;;10.33;10.00;;;;;19.74;30.79;101387.66;5077934;28;45339;-77
2023/04/07 10:51:36;;;;;;;;;12.00;8.00;;;;;19.84;30.88;101435.94;5078403;28;45341;-75
2023/04/07 10:54:22;;;;;;;;;10.33;8.67;;;;;18.96;30.86;101288.47;5081197;28;45527;-78
2023/04/07 10:57:02;;;;;;;;;5.33;5.00;;;;;18.15;30.63;101187.78;5079402;28;45628;-76
2023/04/07 10:59:32;;;;;;;;;4.33;4.33;;;;;18.34;29.93;101259.09;5081445;28;45474;-77
2023/04/07 11:02:13;;;;;;;;;10.33;7.00;;;;;19.05;30.89;101418.59;5084636;28;45523;-76
2023/04/07 11:04:41;;;;;;;;;7.33;6.33;;;;;18.47;31.28;101420.88;5075580;28;45324;-77
2023/04/07 11:07:07;;;;;;;;;6.33;6.33;;;;;17.85;32.47;101342.88;5060325;28;46368;-77
2023/04/07 11:09:33;;;;;;;;;8.00;6.67;;;;;17.44;32.78;101282.25;5039269;28;45403;-76
2023/04/07 11:11:58;;;;;;;;;5.33;5.33;;;;;18.07;32.31;101415.75;5037302;28;45487;-76
2023/04/07 11:14:30;;;;;;;;;6.33;5.33;;;;;18.15;32.56;101426.44;5057363;28;45596;-77
2023/04/07 11:16:56;;;;;;;;;5.67;4.67;;;;;17.57;31.89;101336.25;5057807;28;46061;-76
2023/04/07 11:19:22;;;;;;;;;4.33;4.33;;;;;17.80;32.79;101431.31;5039175;28;45504;-76